createdAt,value
2022-08-12T00:00:28.187Z,7.13
2022-08-12T00:06:00.429Z,6.40
2022-08-12T00:11:27.489Z,9.90
2022-08-12T00:16:49.817Z,7.18
2022-08-12T00:22:10.637Z,8.15
2022-08-12T00:27:44.160Z,8.88
2022-08-12T00:33:05.694Z,9.45
2022-08-12T00:38:27.202Z,11.50
2022-08-12T00:43:30.274Z,11.90
2022-08-12T00:48:33.301Z,9.18
2022-08-12T00:53:39.400Z,9.13
2022-08-12T00:58:48.265Z,10.65
2022-08-12T01:04:09.591Z,7.93
2022-08-12T01:09:34.069Z,12.07
2022-08-12T01:14:38.542Z,8.77
2022-08-12T01:19:41.610Z,8.13
2022-08-12T01:24:54.810Z,11.15
2022-08-12T01:29:59.375Z,8.93
2022-08-12T01:35:06.147Z,8.90
2022-08-12T01:40:33.883Z,9.90
2022-08-12T01:45:40.627Z,17.33
2022-08-12T01:52:12.657Z,8.70
2022-08-12T01:57:02.007Z,9.13
2022-08-12T02:02:09.951Z,9.75
2022-08-12T02:08:07.452Z,8.23
2022-08-12T02:13:48.289Z,14.25
2022-08-12T02:19:22.395Z,12.68
2022-08-12T02:24:31.933Z,8.52
2022-08-12T02:29:35.830Z,10.77
2022-08-12T02:34:38.783Z,7.25
2022-08-12T02:39:45.449Z,12.32
2022-08-12T02:44:52.242Z,8.88
2022-08-12T02:49:59.305Z,11.48
2022-08-12T02:55:34.186Z,7.38
2022-08-12T03:00:40.708Z,14.95
2022-08-12T03:05:58.744Z,9.15
2022-08-12T03:11:12.195Z,12.87
2022-08-12T03:16:17.560Z,7.35
2022-08-12T03:21:52.871Z,7.40
2022-08-12T03:26:47.921Z,8.13
2022-08-12T03:31:50.956Z,9.80
2022-08-12T03:36:55.291Z,9.32
2022-08-12T03:42:02.733Z,15.25
2022-08-12T03:47:40.111Z,11.88
2022-08-12T03:53:01.266Z,12.73
2022-08-12T03:58:23.292Z,11.07
2022-08-12T04:03:44.622Z,10.02
2022-08-12T04:08:48.494Z,9.70
2022-08-12T04:14:12.505Z,12.85
2022-08-12T04:19:16.545Z,8.88
2022-08-12T04:24:21.247Z,9.77
2022-08-12T04:30:16.649Z,13.65
2022-08-12T04:34:46.973Z,10.68
2022-08-12T04:39:50.461Z,13.93
2022-08-12T04:44:53.127Z,9.35
2022-08-12T04:49:55.508Z,8.63
2022-08-12T04:54:58.269Z,12.57
2022-08-12T05:00:00.667Z,14.18
2022-08-12T05:05:04.467Z,9.90
2022-08-12T05:10:07.630Z,8.35
2022-08-12T05:15:16.869Z,10.57
2022-08-12T05:20:30.368Z,9.20
2022-08-12T05:25:32.740Z,12.95
2022-08-12T05:30:35.619Z,9.75
2022-08-12T05:35:40.955Z,12.43
2022-08-12T05:40:43.709Z,12.90
2022-08-12T05:45:46.901Z,7.95
2022-08-12T05:50:49.687Z,10.35
2022-08-12T05:55:54.162Z,10.20
2022-08-12T06:00:57.410Z,5.18
2022-08-12T06:05:59.763Z,14.70
2022-08-12T06:11:05.185Z,20.83
2022-08-12T06:16:08.422Z,12.65
2022-08-12T06:21:13.600Z,12.93
2022-08-12T06:26:19.732Z,10.23
2022-08-12T06:31:26.330Z,5.80
2022-08-12T06:36:32.471Z,7.60
2022-08-12T06:42:02.766Z,5.45
2022-08-12T06:47:17.314Z,7.80
2022-08-12T06:52:25.651Z,4.78
2022-08-12T06:58:06.220Z,5.32
2022-08-12T07:02:51.582Z,7.43
2022-08-12T07:07:54.627Z,5.32
2022-08-12T07:12:57.146Z,5.75
2022-08-12T07:18:01.541Z,6.38
2022-08-12T07:23:06.421Z,10.07
2022-08-12T07:28:19.449Z,6.35
2022-08-12T07:33:28.627Z,7.70
2022-08-12T07:38:34.946Z,5.25
2022-08-12T07:43:44.006Z,5.50
2022-08-12T07:48:59.726Z,7.57
2022-08-12T07:54:03.686Z,6.13
2022-08-12T07:59:12.338Z,5.38
2022-08-12T08:09:35.844Z,11.18
2022-08-12T08:14:38.529Z,7.13
2022-08-12T08:20:02.935Z,4.22
2022-08-12T08:25:03.426Z,5.32
2022-08-12T08:30:28.528Z,6.57
2022-08-12T08:35:46.544Z,4.50
2022-08-12T08:46:10.354Z,5.18
2022-08-12T08:51:14.210Z,5.38
2022-08-12T08:56:16.628Z,7.90
2022-08-12T09:01:22.008Z,11.35
2022-08-12T09:06:37.027Z,5.90
2022-08-12T09:12:10.926Z,5.00
2022-08-12T09:22:38.079Z,7.20
2022-08-12T09:28:15.602Z,6.30
2022-08-12T09:33:18.513Z,5.85
2022-08-12T09:38:28.553Z,6.60
2022-08-12T09:44:00.643Z,9.43
2022-08-12T09:49:13.174Z,6.10
2022-08-12T09:54:32.703Z,7.10
2022-08-12T10:00:13.023Z,5.15
2022-08-12T10:05:01.021Z,5.38
2022-08-12T10:10:03.457Z,4.45
2022-08-12T10:15:07.012Z,4.63
2022-08-12T10:20:12.097Z,4.03
2022-08-12T10:26:36.644Z,4.18
2022-08-12T10:30:59.029Z,4.10
2022-08-12T10:36:02.681Z,5.35
2022-08-12T10:41:23.729Z,7.40
2022-08-12T10:46:49.274Z,4.15
2022-08-12T10:52:03.526Z,4.43
2022-08-12T10:57:18.153Z,3.20
2022-08-12T11:04:25.127Z,6.25
2022-08-12T11:08:36.209Z,3.13
2022-08-12T11:13:47.415Z,3.95
2022-08-12T11:18:55.378Z,8.07
2022-08-12T11:23:59.483Z,3.05
2022-08-12T11:29:06.063Z,3.40
2022-08-12T11:34:53.286Z,4.40
2022-08-12T11:45:10.348Z,3.17
2022-08-12T11:50:19.637Z,3.08
2022-08-12T11:55:23.322Z,5.13
2022-08-12T12:05:49.264Z,2.35
2022-08-12T12:10:54.739Z,2.97
2022-08-12T12:16:00.237Z,3.33
2022-08-12T12:21:08.388Z,3.08
2022-08-12T12:26:35.050Z,6.55
2022-08-12T12:32:11.734Z,3.78
2022-08-12T12:37:04.160Z,3.30
2022-08-12T12:42:43.185Z,3.55
2022-08-12T12:47:30.947Z,3.70
2022-08-12T12:52:34.009Z,3.20
2022-08-12T12:58:00.437Z,2.70
2022-08-12T13:03:03.538Z,3.42
2022-08-12T13:08:27.843Z,5.32
2022-08-12T13:14:06.990Z,3.83
2022-08-12T13:18:57.355Z,3.08
2022-08-12T13:24:09.767Z,7.90
2022-08-12T13:29:13.511Z,3.35
2022-08-12T13:34:33.695Z,3.15
2022-08-12T13:39:39.478Z,3.13
2022-08-12T13:44:42.395Z,2.53
2022-08-12T13:49:55.206Z,3.05
2022-08-12T13:54:58.758Z,2.25
2022-08-12T14:00:01.847Z,2.33
2022-08-12T14:05:31.466Z,3.08
2022-08-12T14:10:51.132Z,4.05
2022-08-12T14:15:56.166Z,2.83
2022-08-12T14:21:04.150Z,7.03
2022-08-12T14:26:11.957Z,10.55
2022-08-12T14:31:18.119Z,5.55
2022-08-12T14:36:27.483Z,2.83
2022-08-12T14:41:37.294Z,8.07
2022-08-12T14:46:56.269Z,2.67
2022-08-12T14:52:42.568Z,5.28
2022-08-12T14:57:33.537Z,4.63
2022-08-12T15:02:38.784Z,3.05
2022-08-12T15:07:52.343Z,2.70
2022-08-12T15:13:08.156Z,2.70
2022-08-12T15:18:12.909Z,2.45
2022-08-12T15:23:17.462Z,5.63
2022-08-12T15:28:29.243Z,4.68
2022-08-12T15:33:45.081Z,13.57
2022-08-12T15:38:48.746Z,5.38
2022-08-12T15:44:19.996Z,2.92
2022-08-12T15:49:20.608Z,3.97
2022-08-12T15:54:34.343Z,3.90
2022-08-12T16:00:03.758Z,3.08
2022-08-12T16:05:01.791Z,3.70
2022-08-12T16:10:08.546Z,5.38
2022-08-12T16:15:16.075Z,8.23
2022-08-12T16:20:33.115Z,9.88
2022-08-12T16:26:03.398Z,11.52
2022-08-12T16:31:29.742Z,4.85
2022-08-12T16:36:32.149Z,3.58
2022-08-12T16:41:39.633Z,3.00
2022-08-12T16:46:43.253Z,4.35
2022-08-12T16:52:01.074Z,3.58
2022-08-12T16:57:05.678Z,7.05
2022-08-12T17:02:11.935Z,5.82
2022-08-12T17:07:43.165Z,3.97
2022-08-12T17:12:46.443Z,6.38
2022-08-12T17:17:50.518Z,5.70
2022-08-12T17:23:15.024Z,3.00
2022-08-12T17:28:20.913Z,7.93
2022-08-12T17:33:24.552Z,3.78
2022-08-12T17:38:29.963Z,4.18
2022-08-12T17:43:54.797Z,6.45
2022-08-12T17:48:57.991Z,8.30
2022-08-12T17:54:11.555Z,6.32
2022-08-12T17:59:47.208Z,8.15
2022-08-12T18:05:04.558Z,5.90
2022-08-12T18:10:08.670Z,4.80
2022-08-12T18:15:26.519Z,3.55
2022-08-12T18:20:44.905Z,4.55
2022-08-12T18:26:16.445Z,6.18
2022-08-12T18:31:23.918Z,5.25
2022-08-12T18:36:28.748Z,7.70
2022-08-12T18:41:35.868Z,10.75
2022-08-12T18:46:47.649Z,10.38
2022-08-12T18:52:03.938Z,8.00
2022-08-12T18:57:16.626Z,7.93
2022-08-12T19:02:23.105Z,5.32
2022-08-12T19:07:29.553Z,6.55
2022-08-12T19:13:10.575Z,8.50
2022-08-12T19:18:14.352Z,3.60
2022-08-12T19:23:21.444Z,5.13
2022-08-12T19:28:30.097Z,6.18
2022-08-12T19:33:37.372Z,3.88
2022-08-12T19:38:46.997Z,4.43
2022-08-12T19:44:16.776Z,6.55
2022-08-12T19:49:23.657Z,4.20
2022-08-12T19:54:30.340Z,4.47
2022-08-12T19:59:43.166Z,4.78
2022-08-12T20:10:35.379Z,3.00
2022-08-12T20:15:44.704Z,6.13
2022-08-12T20:20:51.233Z,5.30
2022-08-12T20:26:07.164Z,12.25
2022-08-12T20:31:12.421Z,6.47
2022-08-12T20:36:40.899Z,4.28
2022-08-12T20:41:41.680Z,2.95
2022-08-12T20:46:44.975Z,3.92
2022-08-12T20:51:55.061Z,3.80
2022-08-12T20:56:58.568Z,2.95
2022-08-12T21:02:06.717Z,2.35
2022-08-12T21:07:11.324Z,2.63
2022-08-12T21:12:27.901Z,3.78
2022-08-12T21:18:01.083Z,2.60
2022-08-12T21:22:57.993Z,3.78
2022-08-12T21:28:01.363Z,2.35
2022-08-12T21:33:10.597Z,2.35
2022-08-12T21:38:17.322Z,1.60
2022-08-12T21:43:24.425Z,1.63
2022-08-12T21:48:30.451Z,1.83
2022-08-12T21:54:07.408Z,2.13
2022-08-12T21:58:56.967Z,1.98
2022-08-12T22:04:32.974Z,4.13
2022-08-12T22:09:43.268Z,3.65
2022-08-12T22:14:47.092Z,2.15
2022-08-12T22:19:50.329Z,2.90
2022-08-12T22:24:53.089Z,3.30
2022-08-12T22:30:19.984Z,2.42
2022-08-12T22:35:55.415Z,2.20
2022-08-12T22:41:02.570Z,1.77
2022-08-12T22:46:15.804Z,2.45
2022-08-12T22:51:20.724Z,2.50
2022-08-12T22:56:30.824Z,3.47
2022-08-12T23:02:01.351Z,2.25
2022-08-12T23:07:05.203Z,1.80
2022-08-12T23:12:08.483Z,3.78
2022-08-12T23:17:40.603Z,2.08
2022-08-12T23:28:29.558Z,1.92
2022-08-12T23:34:00.818Z,2.95
2022-08-12T23:39:01.674Z,1.65
2022-08-12T23:44:06.866Z,2.20
2022-08-12T23:49:55.470Z,2.33
2022-08-12T23:54:38.730Z,2.03
2022-08-12T23:59:43.444Z,1.60
